Time;durP1;ratioP1;P1;durP2;ratioP2;P2;SDS_P1;SDS_P2;PMS_P1;PMS_P2;Temp;Humidity;BMP_temperature;BMP_pressure;BME280_temperature;BME280_humidity;BME280_pressure;Samples;Min_cycle;Max_cycle;Signal;HPM_P1;HPM_P2
2022/09/26 00:01:41;;;;;;;6.80;2.55;;;;;;;8.08;100.00;100013.81;5026347;28;20033;-74
2022/09/26 00:04:15;;;;;;;10.75;2.47;;;;;;;8.10;100.00;99995.03;5038522;28;20050;-73
2022/09/26 00:06:41;;;;;;;8.95;2.70;;;;;;;8.11;100.00;99996.69;5031407;28;20299;-73
2022/09/26 00:09:06;;;;;;;13.90;4.60;;;;;;;8.16;100.00;99983.72;5024473;28;20056;-73
2022/09/26 00:11:32;;;;;;;6.47;2.80;;;;;;;8.20;100.00;99974.44;5048557;28;20394;-73
2022/09/26 00:14:04;;;;;;;8.57;2.63;;;;;;;8.17;100.00;99966.78;5028478;28;20398;-73
2022/09/26 00:16:29;;;;;;;5.97;2.50;;;;;;;8.16;100.00;99957.16;5024020;28;20044;-73
2022/09/26 00:18:57;;;;;;;4.80;2.47;;;;;;;8.18;100.00;99955.16;5027059;28;20037;-74
2022/09/26 00:21:24;;;;;;;9.93;2.53;;;;;;;8.19;100.00;99951.50;5045668;28;20342;-73
2022/09/26 00:23:50;;;;;;;10.57;3.17;;;;;;;8.20;100.00;99937.22;5028745;28;20025;-73
2022/09/26 00:26:17;;;;;;;7.07;2.75;;;;;;;8.19;100.00;99925.75;5022734;28;20379;-73
2022/09/26 00:28:43;;;;;;;7.13;2.83;;;;;;;8.20;100.00;99921.25;5024859;28;20029;-73
2022/09/26 00:31:15;;;;;;;7.60;2.77;;;;;;;8.23;100.00;99918.25;5022447;28;20044;-73
2022/09/26 00:33:41;;;;;;;10.15;2.72;;;;;;;8.28;100.00;99918.56;5033376;28;20800;-73
2022/09/26 00:36:07;;;;;;;6.47;2.97;;;;;;;8.27;100.00;99914.28;5026997;28;20385;-73
2022/09/26 00:38:33;;;;;;;11.50;3.08;;;;;;;8.25;100.00;99901.13;5033942;28;20029;-73
2022/09/26 00:40:59;;;;;;;7.30;3.47;;;;;;;8.30;100.00;99905.13;5042965;28;20489;-73
2022/09/26 00:43:30;;;;;;;3.67;2.72;;;;;;;8.29;100.00;99904.28;5042093;28;20110;-73
2022/09/26 00:46:04;;;;;;;9.05;3.08;;;;;;;8.29;100.00;99904.28;5036479;28;20336;-73
2022/09/26 00:48:32;;;;;;;7.20;2.70;;;;;;;8.33;100.00;99902.13;5045512;28;20536;-73
2022/09/26 00:50:58;;;;;;;5.13;2.72;;;;;;;8.35;100.00;99897.47;5039599;28;20048;-73
2022/09/26 00:53:29;;;;;;;5.93;2.95;;;;;;;8.36;100.00;99893.81;5058853;28;20043;-73
2022/09/26 00:56:00;;;;;;;7.43;3.35;;;;;;;8.33;100.00;99886.16;5024219;28;20544;-73
2022/09/26 00:58:37;;;;;;;10.50;3.47;;;;;;;8.36;100.00;99881.34;5029966;28;20033;-73
2022/09/26 01:01:03;;;;;;;18.17;3.13;;;;;;;8.40;100.00;99874.69;5056713;28;20041;-73
2022/09/26 01:03:30;;;;;;;9.30;3.20;;;;;;;8.40;100.00;99864.06;5039948;28;20014;-73
2022/09/26 01:05:57;;;;;;;5.80;2.78;;;;;;;8.40;100.00;99874.69;5027417;28;20119;-73
2022/09/26 01:08:31;;;;;;;10.50;3.97;;;;;;;8.42;100.00;99866.56;5039170;28;20513;-74
2022/09/26 01:10:57;;;;;;;9.27;2.67;;;;;;;8.42;100.00;99862.06;5020243;28;20048;-73
2022/09/26 01:13:25;;;;;;;7.13;2.22;;;;;;;8.46;100.00;99851.94;5042240;28;20033;-74
2022/09/26 01:15:50;;;;;;;9.52;3.08;;;;;;;8.45;100.00;99839.59;5039422;28;20037;-74
2022/09/26 01:18:15;;;;;;;12.47;3.50;;;;;;;8.47;100.00;99844.78;5038469;28;20044;-73
2022/09/26 01:20:59;;;;;;;6.67;2.97;;;;;;;8.47;100.00;99836.78;5042060;28;20029;-73
2022/09/26 01:23:34;;;;;;;11.25;2.90;;;;;;;8.47;100.00;99836.78;5055317;28;20039;-73
2022/09/26 01:26:10;;;;;;;7.38;2.85;;;;;;;8.47;100.00;99826.97;5039682;28;20491;-73
2022/09/26 01:29:07;;;;;;;7.18;2.80;;;;;;;8.57;100.00;99829.44;5032775;28;20045;-73
2022/09/26 01:35:02;;;;;;;8.63;2.38;;;;;;;8.43;100.00;99815.03;5060905;28;20044;-73
2022/09/26 01:37:58;;;;;;;13.80;3.08;;;;;;;8.49;100.00;99824.16;5056203;28;20056;-73
2022/09/26 01:40:50;;;;;;;5.03;2.10;;;;;;;8.47;100.00;99826.16;5022898;28;20115;-73
2022/09/26 01:43:24;;;;;;;7.68;2.70;;;;;;;8.48;100.00;99826.00;5004329;28;20041;-74
2022/09/26 01:46:00;;;;;;;6.18;2.35;;;;;;;8.48;100.00;99822.50;5038549;28;20443;-73
2022/09/26 01:48:41;;;;;;;6.28;2.78;;;;;;;8.48;100.00;99806.53;5054718;28;20446;-73
2022/09/26 01:51:18;;;;;;;6.00;2.60;;;;;;;8.44;100.00;99796.22;5040752;28;20040;-73
2022/09/26 01:53:52;;;;;;;5.15;2.72;;;;;;;8.49;100.00;99806.34;5023406;28;20087;-73
2022/09/26 01:56:22;;;;;;;8.50;2.40;;;;;;;8.47;100.00;99799.53;5040547;28;20418;-73
2022/09/26 01:58:57;;;;;;;7.43;2.20;;;;;;;8.44;100.00;99790.91;5026863;28;20044;-73
2022/09/26 02:01:26;;;;;;;9.95;2.55;;;;;;;8.49;100.00;99793.06;5025618;28;20483;-73
2022/09/26 02:03:55;;;;;;;8.18;2.50;;;;;;;8.49;100.00;99792.22;5022581;28;20060;-73
2022/09/26 02:06:33;;;;;;;5.45;2.40;;;;;;;8.53;100.00;99793.56;5074240;22;20045;-79
2022/09/26 02:09:07;;;;;;;11.18;2.83;;;;;;;8.50;100.00;99783.22;5058662;28;20054;-79
2022/09/26 02:11:37;;;;;;;6.78;2.55;;;;;;;8.51;100.00;99782.25;5060396;28;20025;-80
2022/09/26 02:14:09;;;;;;;6.43;2.58;;;;;;;8.53;100.00;99780.25;5059861;28;20055;-81
2022/09/26 02:16:38;;;;;;;8.88;2.28;;;;;;;8.54;100.00;99779.22;5049538;28;20025;-81
2022/09/26 02:19:19;;;;;;;6.90;2.25;;;;;;;8.50;100.00;99772.59;5062361;28;20332;-77
2022/09/26 02:21:45;;;;;;;14.55;3.03;;;;;;;8.61;100.00;99781.03;5050302;28;20037;-77
2022/09/26 02:24:11;;;;;;;5.68;2.65;;;;;;;8.58;100.00;99767.25;5052539;28;20043;-78
2022/09/26 02:26:37;;;;;;;5.35;2.00;;;;;;;8.57;100.00;99760.25;5065459;28;20035;-77
2022/09/26 02:29:05;;;;;;;9.38;2.20;;;;;;;8.56;100.00;99755.94;5059918;28;20032;-78
2022/09/26 02:31:35;;;;;;;6.45;3.00;;;;;;;8.64;100.00;99755.94;5063433;28;20029;-79
2022/09/26 02:34:02;;;;;;;5.93;3.13;;;;;;;8.66;100.00;99759.22;5080650;28;20119;-78
2022/09/26 02:36:31;;;;;;;8.77;2.50;;;;;;;8.67;100.00;99750.25;5066542;28;20517;-77
2022/09/26 02:38:57;;;;;;;8.27;2.35;;;;;;;8.68;100.00;99757.22;5068167;28;20059;-77
2022/09/26 02:41:54;;;;;;;;;;;;;;;8.73;100.00;99757.50;5061516;28;20028;-79
2022/09/26 02:44:33;;;;;;;7.50;3.05;;;;;;;8.77;100.00;99769.47;5048986;28;20266;-78
2022/09/26 02:47:50;;;;;;;8.18;2.85;;;;;;;8.77;100.00;99758.81;5059779;28;20036;-80
2022/09/26 02:50:57;;;;;;;6.55;2.50;;;;;;;8.76;100.00;99762.50;5043422;28;20321;-77
2022/09/26 02:53:35;;;;;;;6.35;2.65;;;;;;;8.78;100.00;99759.66;5063346;28;20051;-77
2022/09/26 02:56:20;;;;;;;7.60;2.58;;;;;;;8.80;100.00;99753.19;5061462;28;20040;-76
2022/09/26 02:58:58;;;;;;;6.07;2.47;;;;;;;8.82;100.00;99751.16;5061231;28;20028;-77
2022/09/26 03:01:39;;;;;;;8.68;2.58;;;;;;;8.80;100.00;99742.53;5043979;28;20318;-76
2022/09/26 03:04:07;;;;;;;8.90;3.08;;;;;;;8.78;100.00;99739.22;5063486;28;20028;-78
2022/09/26 03:06:38;;;;;;;7.28;3.03;;;;;;;8.80;100.00;99739.88;5064640;28;20051;-78
2022/09/26 03:09:05;;;;;;;4.60;2.40;;;;;;;8.75;100.00;99736.06;5066018;28;20029;-78
2022/09/26 03:11:33;;;;;;;8.40;2.90;;;;;;;8.72;100.00;99731.91;5064057;28;20028;-77
2022/09/26 03:13:59;;;;;;;4.38;2.60;;;;;;;8.76;100.00;99741.22;5060855;28;20016;-76
2022/09/26 03:16:27;;;;;;;;;;;;;;;8.76;100.00;99738.56;5069020;28;20063;-77
2022/09/26 03:19:13;;;;;;;7.00;2.72;;;;;;;8.78;100.00;99739.22;5077561;28;19916;-77
2022/09/26 03:21:39;;;;;;;5.15;2.33;;;;;;;8.79;100.00;99727.56;5062063;28;20028;-77
2022/09/26 03:24:04;;;;;;;8.17;2.90;;;;;;;8.72;100.00;99721.28;5063024;28;20032;-77
2022/09/26 03:26:32;;;;;;;6.57;2.30;;;;;;;8.81;100.00;99722.06;5053671;28;20520;-78
2022/09/26 03:28:59;;;;;;;5.72;2.42;;;;;;;8.77;100.00;99716.25;5050133;28;20899;-78
2022/09/26 03:31:27;;;;;;;6.40;2.65;;;;;;;8.78;100.00;99704.63;5072514;28;20036;-78
2022/09/26 03:33:58;;;;;;;7.82;2.53;;;;;;;8.82;100.00;99692.59;5047877;28;20032;-77
2022/09/26 03:36:23;;;;;;;6.77;2.53;;;;;;;8.88;100.00;99707.03;5059463;28;20040;-78
2022/09/26 03:38:49;;;;;;;6.40;2.57;;;;;;;8.81;100.00;99696.28;5051717;28;20525;-77
2022/09/26 03:41:46;;;;;;;5.43;2.28;;;;;;;8.78;100.00;99685.97;5029148;28;20671;-78
2022/09/26 03:44:17;;;;;;;7.07;2.78;;;;;;;8.77;100.00;99681.66;5064254;28;20595;-78
2022/09/26 03:47:02;;;;;;;4.85;2.38;;;;;;;8.75;100.00;99677.50;5063496;28;20043;-78
2022/09/26 03:49:27;;;;;;;4.05;2.30;;;;;;;8.72;100.00;99669.88;5077487;28;20091;-79
2022/09/26 03:51:53;;;;;;;7.95;2.90;;;;;;;8.77;100.00;99675.50;5074112;28;20392;-78
2022/09/26 03:54:18;;;;;;;7.60;2.50;;;;;;;8.76;100.00;99679.19;5053552;28;20037;-78
2022/09/26 03:56:44;;;;;;;3.37;2.63;;;;;;;8.74;100.00;99670.53;5071148;28;20093;-81
2022/09/26 03:59:10;;;;;;;6.45;2.63;;;;;;;8.69;100.00;99662.28;5058860;28;20014;-77
2022/09/26 04:01:36;;;;;;;6.60;2.45;;;;;;;8.71;100.00;99663.75;5072270;28;20039;-80
2022/09/26 04:04:01;;;;;;;6.83;2.80;;;;;;;8.69;100.00;99657.78;5059906;28;20024;-78
2022/09/26 04:06:27;;;;;;;6.28;2.50;;;;;;;8.65;100.00;99651.13;5067417;28;20024;-77
2022/09/26 04:08:52;;;;;;;6.13;2.70;;;;;;;8.63;100.00;99645.97;5051477;28;20081;-78
2022/09/26 04:11:21;;;;;;;7.65;2.78;;;;;;;8.68;100.00;99656.09;5063243;28;20401;-78
2022/09/26 04:13:48;;;;;;;11.70;2.42;;;;;;;8.66;100.00;99650.97;5051845;28;20028;-77
2022/09/26 04:16:14;;;;;;;7.00;2.95;;;;;;;8.69;100.00;99655.13;5065084;28;20051;-78
2022/09/26 04:18:44;;;;;;;6.78;2.78;;;;;;;8.71;100.00;99644.28;5065757;28;20519;-77
2022/09/26 04:21:12;;;;;;;8.27;2.28;;;;;;;8.72;100.00;99644.09;5061723;28;20028;-76
2022/09/26 04:23:39;;;;;;;4.57;2.55;;;;;;;8.78;100.00;99638.09;5067504;28;20041;-77
2022/09/26 04:26:14;;;;;;;5.93;2.60;;;;;;;8.77;100.00;99631.09;5049563;28;20043;-77
2022/09/26 04:28:40;;;;;;;2.95;2.20;;;;;;;8.79;100.00;99639.72;5052355;28;20079;-76
2022/09/26 04:31:09;;;;;;;4.35;2.40;;;;;;;8.78;100.00;99634.56;5049955;28;20048;-78
2022/09/26 04:33:37;;;;;;;7.38;2.88;;;;;;;8.74;100.00;99638.63;5052491;28;20054;-80
2022/09/26 04:36:08;;;;;;;3.67;2.50;;;;;;;8.73;100.00;99624.47;5051125;28;20027;-78
2022/09/26 04:38:35;;;;;;;6.65;2.80;;;;;;;8.78;100.00;99630.09;5069093;28;20032;-78
2022/09/26 04:41:14;;;;;;;8.02;4.53;;;;;;;8.76;100.00;99647.25;5051423;28;20013;-78
2022/09/26 04:43:40;;;;;;;14.15;2.45;;;;;;;8.73;100.00;99632.44;5049166;28;20035;-77
2022/09/26 04:46:12;;;;;;;7.57;2.50;;;;;;;8.81;100.00;99648.38;5060043;28;20039;-77
2022/09/26 04:48:39;;;;;;;5.40;2.67;;;;;;;8.76;100.00;99631.28;5064765;28;20033;-76
2022/09/26 04:51:13;;;;;;;7.00;2.88;;;;;;;8.75;100.00;99638.41;5066250;28;20032;-77
2022/09/26 04:53:40;;;;;;;10.70;2.55;;;;;;;8.81;100.00;99639.56;5049982;28;20155;-77
2022/09/26 04:56:14;;;;;;;7.57;3.20;;;;;;;8.76;100.00;99637.44;5048058;28;20023;-78
2022/09/26 04:58:41;;;;;;;4.43;2.38;;;;;;;8.81;100.00;99651.03;5047455;28;20046;-76
2022/09/26 05:01:10;;;;;;;5.20;3.03;;;;;;;8.78;100.00;99651.38;5060668;28;20032;-78
2022/09/26 05:03:50;;;;;;;4.75;3.10;;;;;;;8.79;100.00;99644.22;5050678;28;20063;-77
2022/09/26 05:06:16;;;;;;;6.97;2.70;;;;;;;8.78;100.00;99637.22;5063609;28;20453;-80
2022/09/26 05:08:46;;;;;;;8.40;3.38;;;;;;;8.81;100.00;99655.53;5050479;28;20588;-80
2022/09/26 05:11:14;;;;;;;10.30;3.00;;;;;;;8.81;100.00;99658.19;5049687;28;20029;-77
2022/09/26 05:13:40;;;;;;;5.85;2.97;;;;;;;8.86;100.00;99650.50;5050976;28;20222;-77
2022/09/26 05:16:09;;;;;;;4.43;3.00;;;;;;;8.81;100.00;99647.53;5062971;28;20040;-77
2022/09/26 05:18:38;;;;;;;4.85;2.50;;;;;;;8.83;100.00;99650.84;5068578;28;20066;-80
2022/09/26 05:21:05;;;;;;;12.27;3.05;;;;;;;8.81;100.00;99645.69;5060398;28;20021;-79
2022/09/26 05:26:29;;;;;;;7.20;3.08;;;;;;;8.79;100.00;99631.75;5065056;28;20036;-77
2022/09/26 05:29:00;;;;;;;7.25;2.58;;;;;;;8.80;100.00;99641.41;5047569;28;20072;-78
2022/09/26 05:31:35;;;;;;;6.72;3.45;;;;;;;8.84;100.00;99644.50;5047009;28;20033;-80
2022/09/26 05:34:06;;;;;;;5.40;2.55;;;;;;;8.83;100.00;99635.72;5049470;28;20063;-80
2022/09/26 05:36:32;;;;;;;8.38;3.28;;;;;;;8.87;100.00;99646.81;5077005;28;20028;-78
2022/09/26 05:38:58;;;;;;;10.73;2.90;;;;;;;8.83;100.00;99641.03;5052986;28;20020;-77
2022/09/26 05:41:27;;;;;;;7.68;2.80;;;;;;;8.85;100.00;99638.19;5070714;28;20043;-77
2022/09/26 05:43:53;;;;;;;8.77;2.92;;;;;;;8.85;100.00;99631.03;5051305;28;20055;-77
2022/09/26 05:46:18;;;;;;;8.30;2.85;;;;;;;8.96;100.00;99647.59;5061236;28;20052;-77
2022/09/26 05:48:49;;;;;;;7.05;3.35;;;;;;;8.93;100.00;99630.13;5049746;28;20433;-77
2022/09/26 05:51:20;;;;;;;6.78;3.65;;;;;;;8.96;100.00;99628.94;5054479;28;20044;-78
2022/09/26 05:53:47;;;;;;;5.65;3.90;;;;;;;8.95;100.00;99637.94;5050444;28;20109;-77
2022/09/26 05:56:18;;;;;;;11.00;4.53;;;;;;;8.98;100.00;99632.25;5042150;28;20082;-78
2022/09/26 05:59:09;;;;;;;8.90;4.18;;;;;;;8.98;100.00;99630.41;5064649;28;20024;-77
2022/09/26 06:01:53;;;;;;;7.05;3.10;;;;;;;8.96;100.00;99626.28;5064243;28;20083;-78
2022/09/26 06:04:36;;;;;;;6.47;3.95;;;;;;;9.02;100.00;99629.06;5060770;28;20044;-77
2022/09/26 06:07:33;;;;;;;5.15;2.90;;;;;;;8.95;100.00;99622.81;5032784;28;20054;-78
2022/09/26 06:10:05;;;;;;;7.40;3.00;;;;;;;9.04;100.00;99626.22;5066475;28;20440;-78
2022/09/26 06:12:39;;;;;;;9.35;3.40;;;;;;;9.07;100.00;99637.34;5065494;28;20054;-77
2022/09/26 06:15:05;;;;;;;7.13;3.20;;;;;;;9.18;100.00;99646.75;5063085;28;20032;-78
2022/09/26 06:17:32;;;;;;;5.80;3.00;;;;;;;9.24;100.00;99626.53;5064797;28;20085;-80
2022/09/26 06:19:57;;;;;;;5.13;2.83;;;;;;;9.24;100.00;99629.19;5065509;28;20518;-78
2022/09/26 06:22:23;;;;;;;8.73;3.20;;;;;;;9.43;100.00;99633.16;5062178;28;20070;-78
2022/09/26 06:24:49;;;;;;;;;;;;;;;9.52;100.00;99619.56;5064515;28;20487;-80
2022/09/26 06:27:14;;;;;;;;;;;;;;;9.62;100.00;99607.81;5063113;28;19916;-76
2022/09/26 06:29:39;;;;;;;9.60;3.30;;;;;;;9.71;100.00;99596.06;5067455;28;19916;-78
2022/09/26 06:32:05;;;;;;;6.93;2.60;;;;;;;9.85;100.00;99581.88;5062081;28;20119;-77
2022/09/26 06:34:47;;;;;;;8.15;3.50;;;;;;;10.12;100.00;99572.38;5066847;28;20029;-78
2022/09/26 06:37:31;;;;;;;9.88;2.78;;;;;;;10.38;100.00;99536.34;5062955;28;20048;-80
2022/09/26 06:39:59;;;;;;;6.65;2.75;;;;;;;10.70;100.00;99515.47;5066470;28;20449;-77
2022/09/26 06:42:24;;;;;;;;;;;;;;;10.48;100.00;99463.97;5061592;28;20613;-77
2022/09/26 06:45:10;;;;;;;9.10;3.58;;;;;;;10.49;100.00;99444.28;5042437;28;20352;-78
2022/09/26 06:48:05;;;;;;;3.45;2.63;;;;;;;10.70;100.00;99438.06;5068556;28;20129;-77
2022/09/26 06:50:41;;;;;;;;;;;;;;;10.78;100.00;99435.25;5083358;28;20033;-78
2022/09/26 06:53:06;;;;;;;;;;;;;;;10.85;100.00;99421.94;5070278;28;19913;-79
2022/09/26 06:55:32;;;;;;;5.20;3.10;;;;;;;10.55;100.00;99403.47;5054778;28;19908;-77
2022/09/26 06:57:57;;;;;;;9.90;2.85;;;;;;;10.31;100.00;99404.75;5066367;28;20120;-78
2022/09/26 07:00:26;;;;;;;6.97;2.28;;;;;;;10.20;100.00;99432.72;5053517;28;20051;-77
2022/09/26 07:03:04;;;;;;;6.75;2.58;;;;;;;9.97;100.00;99454.25;5067769;28;20020;-77
2022/09/26 07:05:53;;;;;;;13.35;3.00;;;;;;;10.11;100.00;99493.38;5057313;28;20036;-78
2022/09/26 07:08:19;;;;;;;6.82;3.60;;;;;;;10.05;100.00;99496.81;5065739;28;20404;-79
2022/09/26 07:10:45;;;;;;;10.13;3.45;;;;;;;10.02;100.00;99496.34;5053935;28;20123;-76
2022/09/26 07:13:18;;;;;;;11.32;4.82;;;;;;;9.91;100.00;99497.69;5066963;28;20028;-78
2022/09/26 07:15:44;;;;;;;7.07;2.92;;;;;;;9.94;100.00;99507.97;5065807;28;20033;-78
2022/09/26 07:18:30;;;;;;;;;;;;;;;10.06;100.00;99538.44;5065350;28;20032;-80
2022/09/26 07:21:04;;;;;;;11.98;3.75;;;;;;;9.99;100.00;99534.88;5067096;28;19916;-78
2022/09/26 07:23:47;;;;;;;8.73;4.13;;;;;;;10.03;100.00;99536.16;5069860;28;20481;-78
2022/09/26 07:26:14;;;;;;;8.25;3.92;;;;;;;10.22;100.00;99537.38;5065546;28;20032;-75
2022/09/26 07:28:39;;;;;;;7.33;3.80;;;;;;;10.08;100.00;99525.75;5068277;28;20113;-77
2022/09/26 07:31:06;;;;;;;10.90;4.60;;;;;;;10.18;100.00;99522.75;5062359;28;20032;-78
2022/09/26 07:34:07;;;;;;;6.75;3.58;;;;;;;10.19;100.00;99523.63;5062450;28;20480;-79
2022/09/26 07:36:34;;;;;;;6.57;4.28;;;;;;;10.13;100.00;99511.84;5071061;28;20209;-77
2022/09/26 07:39:00;;;;;;;7.70;4.30;;;;;;;10.29;100.00;99518.81;5053289;28;20096;-76
2022/09/26 07:41:30;;;;;;;6.25;4.53;;;;;;;10.17;100.00;99509.63;5070544;28;20035;-78
2022/09/26 07:43:57;;;;;;;6.85;4.00;;;;;;;10.25;100.00;99522.84;5064102;28;20032;-78
2022/09/26 07:51:56;;;;;;;11.15;5.70;;;;;;;10.66;100.00;99503.53;5068476;28;20078;-77
2022/09/26 07:54:28;;;;;;;8.07;4.50;;;;;;;10.74;100.00;99500.72;5070289;28;20016;-78
2022/09/26 07:57:12;;;;;;;8.52;4.60;;;;;;;10.82;100.00;99483.75;5067086;28;20102;-79
2022/09/26 07:59:50;;;;;;;5.38;3.60;;;;;;;11.03;100.00;99470.31;5072110;28;20040;-77
2022/09/26 08:02:39;;;;;;;7.88;4.43;;;;;;;10.85;100.00;99445.97;5069458;28;20523;-78
2022/09/26 08:05:05;;;;;;;5.93;3.22;;;;;;;11.00;100.00;99452.00;5065997;28;20032;-77
2022/09/26 08:07:34;;;;;;;4.78;3.50;;;;;;;11.05;100.00;99448.75;5068484;28;20012;-77
2022/09/26 08:10:18;;;;;;;13.05;4.50;;;;;;;11.19;100.00;99463.81;5052928;28;20076;-78
2022/09/26 08:13:02;;;;;;;6.43;3.80;;;;;;;11.14;100.00;99420.84;5066227;28;20074;-77
2022/09/26 08:15:34;;;;;;;8.20;3.42;;;;;;;11.53;100.00;99436.22;5069266;28;20036;-77
2022/09/26 08:18:03;;;;;;;9.52;3.45;;;;;;;12.39;100.00;99448.13;5070147;28;20415;-79
2022/09/26 08:20:29;;;;;;;8.52;3.38;;;;;;;11.89;100.00;99263.94;5068852;28;20027;-76
2022/09/26 08:22:55;;;;;;;7.60;3.13;;;;;;;12.49;100.00;99297.81;5066599;28;20560;-77
2022/09/26 08:25:20;;;;;;;5.60;3.15;;;;;;;12.55;100.00;99233.56;5068065;28;20044;-77
2022/09/26 08:27:58;;;;;;;6.15;2.50;;;;;;;13.26;100.00;99247.81;5050401;28;20082;-76
2022/09/26 08:30:24;;;;;;;6.30;2.88;;;;;;;13.65;100.00;99149.34;5064698;28;20493;-78
2022/09/26 08:32:53;;;;;;;6.38;3.00;;;;;;;13.43;100.00;99037.16;5057359;28;20083;-76
2022/09/26 08:35:19;;;;;;;5.55;3.17;;;;;;;13.23;100.00;98926.66;5053061;28;20840;-77
2022/09/26 08:38:07;;;;;;;5.60;3.10;;;;;;;11.96;100.00;98946.53;5065243;28;20047;-77
2022/09/26 08:41:13;;;;;;;6.60;3.50;;;;;;;12.38;100.00;99216.31;5076777;28;20388;-76
2022/09/26 08:44:04;;;;;;;6.82;4.82;;;;;;;12.37;100.00;99131.72;5063593;28;20404;-76
2022/09/26 08:47:01;;;;;;;8.23;3.05;;;;;;;12.09;100.00;99162.28;5065573;28;20048;-77
2022/09/26 08:50:13;;;;;;;5.57;3.38;;;;;;;11.98;100.00;99214.56;5062766;28;20059;-77
2022/09/26 08:52:55;;;;;;;7.68;3.20;;;;;;;12.08;100.00;99248.94;5054400;28;20925;-77
2022/09/26 08:55:30;;;;;;;4.50;2.80;;;;;;;12.13;100.00;99275.88;5065478;28;20032;-77
2022/09/26 08:58:03;;;;;;;6.70;4.10;;;;;;;12.10;100.00;99272.78;5064425;28;20035;-78
2022/09/26 09:00:36;;;;;;;12.38;2.70;;;;;;;11.89;100.00;99231.03;5062545;28;20452;-78
2022/09/26 09:03:27;;;;;;;4.43;2.80;;;;;;;12.25;100.00;99255.47;5049750;28;20039;-76
2022/09/26 09:06:01;;;;;;;3.97;2.83;;;;;;;12.31;100.00;99277.06;5059927;28;20021;-78
2022/09/26 09:08:37;;;;;;;7.30;3.28;;;;;;;11.95;100.00;99248.94;5063592;28;20107;-78
2022/09/26 09:11:18;;;;;;;9.25;3.05;;;;;;;12.30;100.00;99327.09;5061740;28;20044;-76
2022/09/26 09:14:12;;;;;;;4.78;3.30;;;;;;;11.65;100.00;99288.63;5066242;28;20377;-77
2022/09/26 09:17:31;;;;;;;6.60;3.40;;;;;;;12.31;100.00;99384.09;5064226;28;20389;-76
2022/09/26 09:20:38;;;;;;;6.65;3.67;;;;;;;11.86;100.00;99352.59;5054370;28;20333;-77
2022/09/26 09:24:09;;;;;;;7.68;3.10;;;;;;;11.68;100.00;99379.91;5048885;28;20477;-76
2022/09/26 09:27:11;;;;;;;6.50;3.35;;;;;;;11.73;100.00;99387.31;5060408;28;20115;-76
2022/09/26 09:30:01;;;;;;;6.80;3.38;;;;;;;11.62;100.00;99370.03;5060389;28;20063;-77
2022/09/26 09:33:25;;;;;;;5.57;3.13;;;;;;;12.01;100.00;99438.00;5038430;28;20511;-77
2022/09/26 09:36:13;;;;;;;8.20;2.90;;;;;;;11.99;100.00;99391.94;5025969;28;20395;-76
2022/09/26 09:39:01;;;;;;;6.30;3.03;;;;;;;11.78;100.00;99366.97;5018583;28;20033;-77
2022/09/26 09:41:49;;;;;;;4.18;2.80;;;;;;;11.82;100.00;99389.63;5015824;28;20041;-77
2022/09/26 09:44:42;;;;;;;5.88;3.53;;;;;;;11.88;100.00;99403.22;5035705;28;20029;-77
2022/09/26 09:47:15;;;;;;;5.53;2.60;;;;;;;11.95;100.00;99390.69;5013881;28;20042;-77
2022/09/26 09:49:46;;;;;;;5.03;2.83;;;;;;;12.17;100.00;99370.72;5024073;28;20276;-77
2022/09/26 09:52:54;;;;;;;4.28;2.17;;;;;;;12.16;100.00;99270.09;5008814;28;20025;-77
2022/09/26 09:55:46;;;;;;;6.72;2.92;;;;;;;11.84;100.00;99251.16;5006960;28;20123;-76
2022/09/26 09:58:48;;;;;;;8.55;2.58;;;;;;;11.97;100.00;99278.97;4993338;28;20057;-77
2022/09/26 10:01:27;;;;;;;4.80;2.90;;;;;;;12.32;100.00;99287.56;5025036;28;20045;-76
2022/09/26 10:04:10;;;;;;;4.88;2.70;;;;;;;12.58;100.00;99300.03;5005604;28;20037;-76
2022/09/26 10:06:36;;;;;;;11.23;4.03;;;;;;;12.38;100.00;99243.88;5018258;28;20374;-75
2022/09/26 10:09:17;;;;;;;4.07;2.83;;;;;;;13.01;100.00;99296.78;5047773;28;20024;-77
2022/09/26 10:12:15;;;;;;;5.10;2.83;;;;;;;12.34;100.00;99165.06;5062017;28;20044;-77
2022/09/26 10:15:19;;;;;;;4.78;3.33;;;;;;;12.36;100.00;99167.53;5046541;28;20622;-77
2022/09/26 10:18:15;;;;;;;4.88;3.30;;;;;;;12.33;100.00;99151.91;5059149;28;20043;-77
2022/09/26 10:21:01;;;;;;;6.93;3.92;;;;;;;12.42;100.00;99222.88;5058447;28;20501;-79
2022/09/26 10:23:32;;;;;;;5.15;2.95;;;;;;;12.21;100.00;99162.44;5081443;28;20104;-78
2022/09/26 10:26:04;;;;;;;6.05;3.63;;;;;;;12.12;100.00;99164.53;5056916;28;20029;-79
2022/09/26 10:28:51;;;;;;;5.88;3.20;;;;;;;12.56;100.00;99205.75;5053075;28;20394;-79
2022/09/26 10:31:28;;;;;;;10.07;3.42;;;;;;;12.57;100.00;99137.78;5063568;28;20031;-78
2022/09/26 10:34:27;;;;;;;10.68;3.42;;;;;;;12.55;100.00;99107.72;5078592;28;20493;-79
2022/09/26 10:36:54;;;;;;;7.82;4.13;;;;;;;12.32;100.00;99112.81;5055530;28;20024;-77
2022/09/26 10:42:21;;;;;;;5.35;3.65;;;;;;;12.29;100.00;99118.56;5061054;28;20028;-78
2022/09/26 10:44:54;;;;;;;5.18;3.28;;;;;;;12.34;100.00;99095.50;5063153;28;20063;-77
2022/09/26 10:47:23;;;;;;;6.80;3.30;;;;;;;12.66;100.00;99130.31;5057915;28;20213;-77
2022/09/26 10:50:16;;;;;;;6.60;3.40;;;;;;;12.77;100.00;99005.63;5063539;28;20074;-78
2022/09/26 10:53:14;;;;;;;8.70;3.80;;;;;;;12.65;100.00;99022.41;5028970;28;20517;-80
2022/09/26 10:55:48;;;;;;;4.57;3.20;;;;;;;12.51;100.00;98978.03;5057031;28;20028;-79
2022/09/26 10:58:18;;;;;;;4.80;3.50;;;;;;;12.71;100.00;99057.38;5057957;28;20422;-78
2022/09/26 11:00:49;;;;;;;3.97;2.90;;;;;;;12.65;100.00;99080.47;5061403;28;20032;-78
2022/09/26 11:03:31;;;;;;;6.65;3.83;;;;;;;12.46;100.00;99075.03;5047632;28;20025;-78
2022/09/26 11:06:39;;;;;;;8.10;5.00;;;;;;;12.71;100.00;99126.97;5061247;28;20055;-78
2022/09/26 11:09:26;;;;;;;8.63;4.20;;;;;;;12.71;100.00;99084.13;5066177;28;20137;-78
2022/09/26 11:12:24;;;;;;;5.40;3.80;;;;;;;12.80;100.00;99046.16;5056954;28;20082;-79
2022/09/26 11:15:11;;;;;;;6.90;3.92;;;;;;;12.78;100.00;99037.56;5065429;28;20465;-78
2022/09/26 11:17:46;;;;;;;6.50;2.97;;;;;;;12.93;100.00;99058.63;5079082;28;20133;-79
2022/09/26 11:20:40;;;;;;;6.75;3.58;;;;;;;12.63;100.00;98922.72;5063537;28;20024;-79
2022/09/26 11:23:23;;;;;;;7.13;3.30;;;;;;;12.96;100.00;98926.94;5035894;28;20100;-79
2022/09/26 11:25:58;;;;;;;5.80;3.13;;;;;;;13.45;100.00;98882.28;5065900;28;20894;-78
2022/09/26 11:28:52;;;;;;;14.03;3.30;;;;;;;13.55;100.00;98726.22;5061431;28;20063;-78
2022/09/26 11:31:41;;;;;;;4.35;3.50;;;;;;;13.29;100.00;98660.47;5046891;28;20083;-78
2022/09/26 11:34:32;;;;;;;6.82;3.50;;;;;;;13.37;100.00;98729.00;5061857;28;20063;-78
2022/09/26 11:37:29;;;;;;;7.95;3.10;;;;;;;13.32;100.00;98794.00;5051043;28;20031;-78
2022/09/26 11:40:39;;;;;;;5.70;2.65;;;;;;;13.17;100.00;98780.19;5044319;28;20037;-78
2022/09/26 11:43:24;;;;;;;5.28;3.15;;;;;;;13.09;100.00;98749.19;5049289;28;20115;-78
2022/09/26 11:46:08;;;;;;;6.10;2.45;;;;;;;13.41;100.00;98848.09;5066541;28;20032;-78
2022/09/26 11:49:12;;;;;;;6.43;3.35;;;;;;;13.18;100.00;98830.88;5051962;28;20036;-78
2022/09/26 11:52:06;;;;;;;5.10;3.15;;;;;;;12.86;100.00;98733.81;5058024;28;20486;-78
2022/09/26 11:54:46;;;;;;;6.10;2.67;;;;;;;12.93;100.00;98749.81;5060697;28;20035;-78
2022/09/26 11:57:33;;;;;;;8.52;2.75;;;;;;;12.97;100.00;98800.03;5081076;28;20044;-79
2022/09/26 12:00:26;;;;;;;4.55;2.40;;;;;;;13.22;100.00;98775.75;5064945;28;20159;-78
2022/09/26 12:02:54;;;;;;;5.10;2.53;;;;;;;13.15;100.00;98768.88;5060530;28;20036;-79
2022/09/26 12:05:47;;;;;;;4.82;2.05;;;;;;;13.57;100.00;98809.94;5056196;28;20075;-77
2022/09/26 12:08:22;;;;;;;5.72;3.05;;;;;;;13.21;100.00;98661.59;5049917;28;20028;-78
2022/09/26 12:11:18;;;;;;;3.78;2.22;;;;;;;13.41;100.00;98751.63;5056683;28;20070;-78
2022/09/26 12:14:21;;;;;;;5.70;2.45;;;;;;;12.99;100.00;98647.09;5046654;28;20045;-78
2022/09/26 12:17:03;;;;;;;3.25;2.20;;;;;;;13.25;100.00;98667.31;5053839;28;20572;-79
2022/09/26 12:20:00;;;;;;;4.88;2.15;;;;;;;13.06;100.00;98696.88;5068869;28;20078;-78
2022/09/26 12:22:41;;;;;;;5.22;2.38;;;;;;;12.92;100.00;98700.75;5065257;28;20024;-78
2022/09/26 12:25:31;;;;;;;5.97;2.80;;;;;;;12.95;100.00;98729.78;5051039;28;20028;-79
2022/09/26 12:28:19;;;;;;;6.05;2.10;;;;;;;12.88;100.00;98796.00;5065355;28;20127;-79
2022/09/26 12:31:07;;;;;;;4.35;2.30;;;;;;;12.75;100.00;98842.50;5054014;28;20032;-77